createdAt,value
2022-11-30T00:01:58.239Z,3.84
2022-11-30T00:04:36.478Z,3.78
2022-11-30T00:07:09.531Z,3.67
2022-11-30T00:09:39.426Z,3.85
2022-11-30T00:12:21.862Z,3.66
2022-11-30T00:14:55.421Z,3.73
2022-11-30T00:17:28.047Z,3.66
2022-11-30T00:19:56.531Z,3.72
2022-11-30T00:22:31.442Z,3.57
2022-11-30T00:25:04.738Z,3.60
2022-11-30T00:27:44.934Z,3.59
2022-11-30T00:30:24.159Z,3.70
2022-11-30T00:32:55.766Z,3.61
2022-11-30T00:35:27.723Z,3.46
2022-11-30T00:37:55.977Z,3.68
2022-11-30T00:40:25.904Z,3.57
2022-11-30T00:43:11.367Z,3.43
2022-11-30T00:45:52.076Z,3.42
2022-11-30T00:48:26.056Z,3.36
2022-11-30T00:51:04.824Z,3.45
2022-11-30T00:53:35.772Z,3.19
2022-11-30T00:56:06.849Z,3.41
2022-11-30T00:58:41.626Z,3.35
2022-11-30T01:01:20.915Z,3.40
2022-11-30T01:03:58.630Z,3.38
2022-11-30T01:06:47.299Z,3.34
2022-11-30T01:09:15.865Z,3.32
2022-11-30T01:11:57.186Z,3.40
2022-11-30T01:14:43.028Z,3.33
2022-11-30T01:17:21.962Z,3.39
2022-11-30T01:19:55.395Z,3.44
2022-11-30T01:22:28.381Z,3.19
2022-11-30T01:24:56.484Z,3.27
2022-11-30T01:27:27.613Z,3.14
2022-11-30T01:30:00.465Z,3.40
2022-11-30T01:32:34.050Z,3.31
2022-11-30T01:35:12.182Z,3.14
2022-11-30T01:37:47.767Z,3.39
2022-11-30T01:40:25.348Z,3.27
2022-11-30T01:42:56.470Z,3.21
2022-11-30T01:45:30.027Z,3.31
2022-11-30T01:48:00.616Z,3.29
2022-11-30T01:50:31.848Z,3.34
2022-11-30T01:53:00.618Z,3.40
2022-11-30T01:55:31.385Z,3.27
2022-11-30T01:58:02.317Z,3.50
2022-11-30T02:00:31.989Z,3.48
2022-11-30T02:03:02.973Z,3.45
2022-11-30T02:05:32.735Z,3.53
2022-11-30T02:08:13.277Z,3.62
2022-11-30T02:10:45.197Z,3.38
2022-11-30T02:13:37.668Z,3.44
2022-11-30T02:16:20.309Z,3.56
2022-11-30T02:18:58.321Z,3.37
2022-11-30T02:24:42.520Z,3.54
2022-11-30T02:27:25.084Z,3.37
2022-11-30T02:30:04.710Z,3.31
2022-11-30T02:32:36.388Z,3.43
2022-11-30T02:35:06.691Z,3.49
2022-11-30T02:37:39.493Z,3.22
2022-11-30T02:40:11.151Z,3.40
2022-11-30T02:42:47.236Z,3.52
2022-11-30T02:45:28.391Z,3.49
2022-11-30T02:48:05.838Z,3.38
2022-11-30T02:50:43.340Z,3.41
2022-11-30T02:53:13.957Z,3.43
2022-11-30T02:55:51.809Z,3.39
2022-11-30T02:58:24.778Z,3.42
2022-11-30T03:01:10.037Z,3.37
2022-11-30T03:03:38.890Z,3.44
2022-11-30T03:06:19.777Z,3.41
2022-11-30T03:08:50.522Z,3.39
2022-11-30T03:11:28.804Z,3.57
2022-11-30T03:14:00.206Z,3.54
2022-11-30T03:16:41.943Z,3.41
2022-11-30T03:19:10.701Z,3.38
2022-11-30T03:21:52.359Z,3.42
2022-11-30T03:24:30.620Z,3.19
2022-11-30T03:26:58.646Z,3.25
2022-11-30T03:29:27.131Z,3.24
2022-11-30T03:31:56.553Z,3.35
2022-11-30T03:34:26.574Z,3.66
2022-11-30T03:36:54.806Z,3.40
2022-11-30T03:39:23.613Z,3.58
2022-11-30T03:41:51.696Z,3.40
2022-11-30T03:44:19.955Z,3.48
2022-11-30T03:46:48.101Z,3.55
2022-11-30T03:49:17.571Z,3.59
2022-11-30T03:51:45.680Z,3.43
2022-11-30T03:54:14.036Z,3.54
2022-11-30T03:56:42.119Z,3.48
2022-11-30T03:59:10.155Z,3.24
2022-11-30T04:01:41.111Z,3.26
2022-11-30T04:04:09.329Z,3.41
2022-11-30T04:06:38.767Z,3.50
2022-11-30T04:09:06.850Z,3.29
2022-11-30T04:11:35.929Z,3.54
2022-11-30T04:14:04.108Z,3.42
2022-11-30T04:16:32.322Z,3.61
2022-11-30T04:19:00.610Z,3.48
2022-11-30T04:21:28.656Z,3.39
2022-11-30T04:23:58.060Z,3.52
2022-11-30T04:26:26.177Z,3.42
2022-11-30T04:28:54.576Z,3.56
2022-11-30T04:31:22.659Z,3.44
2022-11-30T04:33:54.295Z,3.38
2022-11-30T04:36:22.663Z,3.53
2022-11-30T04:38:50.968Z,3.61
2022-11-30T04:41:20.491Z,3.32
2022-11-30T04:43:48.530Z,3.47
2022-11-30T04:46:16.686Z,3.27
2022-11-30T04:48:44.821Z,3.37
2022-11-30T04:51:12.934Z,3.30
2022-11-30T04:53:40.990Z,3.58
2022-11-30T04:56:09.880Z,3.33
2022-11-30T04:58:39.881Z,3.45
2022-11-30T05:01:08.727Z,3.43
2022-11-30T05:03:37.018Z,3.50
2022-11-30T05:06:05.455Z,3.36
2022-11-30T05:08:33.566Z,3.55
2022-11-30T05:11:01.641Z,3.54
2022-11-30T05:13:29.753Z,3.67
2022-11-30T05:15:59.219Z,3.68
2022-11-30T05:18:27.457Z,3.66
2022-11-30T05:20:55.553Z,3.52
2022-11-30T05:23:23.601Z,3.65
2022-11-30T05:25:51.718Z,3.61
2022-11-30T05:28:20.084Z,3.56
2022-11-30T05:30:48.225Z,3.50
2022-11-30T05:33:17.690Z,3.60
2022-11-30T05:35:45.764Z,3.65
2022-11-30T05:38:13.802Z,3.70
2022-11-30T05:40:41.821Z,3.55
2022-11-30T05:43:10.158Z,3.42
2022-11-30T05:45:38.201Z,3.47
2022-11-30T05:48:06.994Z,3.35
2022-11-30T05:50:36.493Z,3.46
2022-11-30T05:53:04.628Z,3.41
2022-11-30T05:55:32.801Z,3.42
2022-11-30T05:58:01.028Z,3.55
2022-11-30T06:00:29.446Z,3.45
2022-11-30T06:02:58.706Z,3.46
2022-11-30T06:05:27.480Z,3.47
2022-11-30T06:07:56.970Z,3.59
2022-11-30T06:10:27.316Z,3.61
2022-11-30T06:12:55.348Z,3.67
2022-11-30T06:15:23.446Z,3.58
2022-11-30T06:17:51.487Z,3.62
2022-11-30T06:20:19.578Z,3.61
2022-11-30T06:22:47.908Z,3.71
2022-11-30T06:25:17.439Z,3.74
2022-11-30T06:27:46.230Z,3.78
2022-11-30T06:30:18.582Z,3.90
2022-11-30T06:32:46.676Z,3.84
2022-11-30T06:35:22.349Z,3.70
2022-11-30T06:37:58.386Z,3.81
2022-11-30T06:40:29.262Z,3.83
2022-11-30T06:43:07.613Z,3.83
2022-11-30T06:45:38.976Z,3.70
2022-11-30T06:48:11.160Z,3.80
2022-11-30T06:50:50.226Z,3.77
2022-11-30T06:53:25.263Z,3.88
2022-11-30T06:56:03.067Z,3.79
2022-11-30T06:58:40.610Z,3.72
2022-11-30T07:01:13.464Z,3.75
2022-11-30T07:03:50.845Z,3.82
2022-11-30T07:06:21.990Z,3.99
2022-11-30T07:08:51.849Z,3.93
2022-11-30T07:11:24.289Z,3.92
2022-11-30T07:13:54.598Z,4.04
2022-11-30T07:16:24.481Z,4.15
2022-11-30T07:18:56.000Z,3.96
2022-11-30T07:21:31.613Z,4.05
2022-11-30T07:24:16.896Z,3.99
2022-11-30T07:26:47.699Z,3.99
2022-11-30T07:29:16.504Z,3.94
2022-11-30T07:31:44.994Z,4.15
2022-11-30T07:34:23.217Z,4.07
2022-11-30T07:36:59.749Z,4.11
2022-11-30T07:39:28.668Z,4.19
2022-11-30T07:42:08.275Z,4.30
2022-11-30T07:44:43.910Z,4.26
2022-11-30T07:47:13.849Z,4.26
2022-11-30T07:49:50.517Z,4.15
2022-11-30T07:52:24.310Z,4.27
2022-11-30T07:55:08.880Z,4.25
2022-11-30T07:57:40.729Z,4.16
2022-11-30T08:00:17.789Z,4.15
2022-11-30T08:02:52.310Z,4.12
2022-11-30T08:05:29.988Z,4.01
2022-11-30T08:08:02.532Z,4.25
2022-11-30T08:10:32.826Z,4.14
2022-11-30T08:13:05.200Z,4.26
2022-11-30T08:15:34.798Z,4.08
2022-11-30T08:18:07.057Z,4.30
2022-11-30T08:20:49.784Z,4.46
2022-11-30T08:23:21.659Z,4.27
2022-11-30T08:25:50.201Z,4.41
2022-11-30T08:28:28.903Z,4.51
2022-11-30T08:31:01.210Z,4.51
2022-11-30T08:33:39.621Z,4.30
2022-11-30T08:36:10.173Z,4.28
2022-11-30T08:38:43.694Z,4.30
2022-11-30T08:41:17.885Z,4.35
2022-11-30T08:43:53.052Z,4.50
2022-11-30T08:49:25.231Z,4.57
2022-11-30T08:54:48.086Z,4.62
2022-11-30T08:57:20.494Z,4.55
2022-11-30T08:59:52.464Z,4.53
2022-11-30T09:02:21.879Z,4.66
2022-11-30T09:04:56.305Z,4.38
2022-11-30T09:07:30.661Z,4.55
2022-11-30T09:10:01.906Z,4.75
2022-11-30T09:12:34.448Z,4.82
2022-11-30T09:15:12.883Z,4.95
2022-11-30T09:17:42.682Z,5.02
2022-11-30T09:20:18.995Z,5.14
2022-11-30T09:22:57.739Z,5.19
2022-11-30T09:25:27.332Z,5.17
2022-11-30T09:28:06.776Z,5.12
2022-11-30T09:30:50.492Z,5.04
2022-11-30T09:33:25.505Z,4.99
2022-11-30T09:35:58.175Z,5.05
2022-11-30T09:38:29.657Z,5.27
2022-11-30T09:41:00.390Z,5.09
2022-11-30T09:43:46.588Z,5.11
2022-11-30T09:46:31.985Z,5.17
2022-11-30T09:49:06.492Z,5.14
2022-11-30T09:51:43.821Z,5.26
2022-11-30T09:54:14.612Z,5.46
2022-11-30T09:56:45.539Z,5.41
2022-11-30T09:59:26.691Z,5.25
2022-11-30T10:02:00.001Z,5.28
2022-11-30T10:04:30.970Z,5.05
2022-11-30T10:07:07.522Z,5.04
2022-11-30T10:10:23.379Z,5.33
2022-11-30T10:12:56.568Z,5.32
2022-11-30T10:15:39.529Z,5.52
2022-11-30T10:18:16.968Z,5.35
2022-11-30T10:20:54.891Z,5.44
2022-11-30T10:23:58.728Z,5.47
2022-11-30T10:26:36.307Z,5.48
2022-11-30T10:29:15.850Z,5.55
2022-11-30T10:31:54.592Z,5.53
2022-11-30T10:34:42.778Z,5.55
2022-11-30T10:37:19.121Z,5.70
2022-11-30T10:40:02.002Z,5.51
2022-11-30T10:42:43.142Z,5.52
2022-11-30T10:45:21.755Z,5.56
2022-11-30T10:48:04.811Z,5.68
2022-11-30T10:50:41.497Z,5.68
2022-11-30T10:53:11.872Z,5.75
2022-11-30T10:55:44.520Z,5.79
2022-11-30T10:58:33.370Z,5.79
2022-11-30T11:01:10.991Z,5.61
2022-11-30T11:03:39.723Z,5.66
2022-11-30T11:06:18.731Z,5.75
2022-11-30T11:08:56.448Z,5.75
2022-11-30T11:11:39.488Z,5.87
2022-11-30T11:14:19.591Z,5.77
2022-11-30T11:17:05.486Z,5.85
2022-11-30T11:19:40.465Z,5.78
2022-11-30T11:22:27.502Z,5.88
2022-11-30T11:25:14.902Z,5.85
2022-11-30T11:27:45.202Z,5.70
2022-11-30T11:30:36.505Z,5.69
2022-11-30T11:33:07.078Z,5.72
2022-11-30T11:35:41.830Z,5.93
2022-11-30T11:38:26.357Z,5.97
2022-11-30T11:41:00.639Z,6.03
2022-11-30T11:43:31.794Z,5.90
2022-11-30T11:46:15.154Z,5.93
2022-11-30T11:49:01.913Z,6.08
2022-11-30T11:51:32.549Z,5.88
2022-11-30T11:54:22.109Z,6.10
2022-11-30T11:56:57.965Z,5.96
2022-11-30T11:59:42.255Z,5.97
2022-11-30T12:02:23.723Z,5.89
2022-11-30T12:04:56.836Z,6.11
2022-11-30T12:07:39.858Z,6.19
2022-11-30T12:10:51.174Z,6.04
2022-11-30T12:13:19.059Z,5.94
2022-11-30T12:16:06.486Z,6.01
2022-11-30T12:18:46.061Z,6.22
2022-11-30T12:21:20.133Z,6.17
2022-11-30T12:24:07.798Z,6.04
2022-11-30T12:26:59.093Z,5.98
2022-11-30T12:29:36.411Z,6.02
2022-11-30T12:32:18.899Z,6.26
2022-11-30T12:35:03.771Z,6.00
2022-11-30T12:37:47.281Z,6.13
2022-11-30T12:40:30.464Z,6.18
2022-11-30T12:43:15.359Z,6.18
2022-11-30T12:45:48.532Z,6.26
2022-11-30T12:48:29.984Z,6.26
2022-11-30T12:51:07.371Z,6.25
2022-11-30T12:53:43.687Z,6.31
2022-11-30T12:56:26.428Z,6.28
2022-11-30T12:59:18.799Z,6.15
2022-11-30T13:02:18.243Z,6.03
2022-11-30T13:04:57.751Z,6.24
2022-11-30T13:07:33.482Z,6.16
2022-11-30T13:10:15.530Z,6.28
2022-11-30T13:12:54.693Z,6.24
2022-11-30T13:15:29.743Z,6.28
2022-11-30T13:18:00.886Z,6.28
2022-11-30T13:20:39.793Z,6.17
2022-11-30T13:23:13.594Z,6.21
2022-11-30T13:28:51.864Z,6.44
2022-11-30T13:31:24.423Z,6.41
2022-11-30T13:34:08.143Z,6.33
2022-11-30T13:36:51.687Z,6.38
2022-11-30T13:39:25.659Z,6.25
2022-11-30T13:42:34.478Z,6.39
2022-11-30T13:45:31.583Z,6.26
2022-11-30T13:48:23.299Z,6.19
2022-11-30T13:50:59.934Z,6.30
2022-11-30T13:53:39.507Z,6.35
2022-11-30T13:56:34.273Z,6.50
2022-11-30T13:59:41.543Z,6.19
2022-11-30T14:03:01.646Z,6.14
2022-11-30T14:05:47.241Z,6.22
2022-11-30T14:08:40.286Z,6.21
2022-11-30T14:11:55.325Z,6.20
2022-11-30T14:14:51.367Z,6.15
2022-11-30T14:17:33.990Z,6.27
2022-11-30T14:20:16.476Z,6.21
2022-11-30T14:22:51.110Z,6.21
2022-11-30T14:25:22.041Z,6.11
2022-11-30T14:27:58.021Z,6.23
2022-11-30T14:30:28.429Z,6.21
2022-11-30T14:33:04.357Z,6.23
2022-11-30T14:35:41.550Z,6.19
2022-11-30T14:38:29.711Z,6.11
2022-11-30T14:40:59.622Z,6.16
2022-11-30T14:43:33.552Z,6.24
2022-11-30T14:46:06.514Z,6.17
2022-11-30T14:48:53.402Z,6.23
2022-11-30T14:51:22.669Z,6.24
2022-11-30T14:53:58.854Z,6.27
2022-11-30T14:56:32.976Z,6.20
2022-11-30T14:59:19.967Z,6.30
2022-11-30T15:01:48.385Z,6.20
2022-11-30T15:04:23.623Z,6.28
2022-11-30T15:06:54.385Z,6.19
2022-11-30T15:09:35.913Z,6.26
2022-11-30T15:12:06.702Z,6.28
2022-11-30T15:14:40.695Z,6.40
2022-11-30T15:17:23.204Z,6.36
2022-11-30T15:19:54.238Z,6.35
2022-11-30T15:22:31.533Z,6.20
2022-11-30T15:25:05.661Z,6.25
2022-11-30T15:27:33.748Z,6.27
2022-11-30T15:30:11.049Z,6.38
2022-11-30T15:32:46.494Z,6.36
2022-11-30T15:35:24.135Z,6.24
2022-11-30T15:37:56.778Z,6.35
2022-11-30T15:40:41.644Z,6.32
2022-11-30T15:43:23.718Z,6.43
2022-11-30T15:46:01.612Z,6.36
2022-11-30T15:48:33.279Z,6.49
2022-11-30T15:51:13.379Z,6.43
2022-11-30T15:53:58.310Z,6.27
2022-11-30T15:56:36.596Z,6.38
2022-11-30T15:59:07.757Z,6.33
2022-11-30T16:02:03.763Z,6.59
2022-11-30T16:05:14.606Z,6.34
2022-11-30T16:07:54.149Z,6.46
2022-11-30T16:10:32.191Z,6.38
2022-11-30T16:13:21.672Z,6.28
2022-11-30T16:16:04.388Z,6.23
2022-11-30T16:18:33.828Z,6.30
2022-11-30T16:21:12.191Z,6.34
2022-11-30T16:23:41.295Z,6.31
2022-11-30T16:26:36.094Z,6.31
2022-11-30T16:29:09.518Z,6.57
2022-11-30T16:31:44.477Z,6.38
2022-11-30T16:34:19.080Z,6.46
2022-11-30T16:36:51.599Z,6.37
2022-11-30T16:39:30.112Z,6.34
2022-11-30T16:42:06.742Z,6.30
2022-11-30T16:44:53.193Z,6.29
2022-11-30T16:47:28.330Z,6.20
2022-11-30T16:50:00.786Z,6.28
2022-11-30T16:52:40.840Z,6.40
2022-11-30T16:55:18.780Z,6.48
2022-11-30T16:57:49.855Z,6.54
2022-11-30T17:00:37.591Z,6.31
2022-11-30T17:03:20.342Z,6.25
2022-11-30T17:05:53.222Z,6.36
2022-11-30T17:08:22.568Z,6.39
2022-11-30T17:10:57.254Z,6.26
2022-11-30T17:13:27.757Z,6.35
2022-11-30T17:16:13.651Z,6.24
2022-11-30T17:18:47.202Z,6.22
2022-11-30T17:21:21.143Z,6.07
2022-11-30T17:23:52.748Z,6.11
2022-11-30T17:26:28.822Z,6.28
2022-11-30T17:29:07.736Z,6.27
2022-11-30T17:31:39.831Z,6.26
2022-11-30T17:34:17.945Z,6.34
2022-11-30T17:36:54.419Z,6.27
2022-11-30T17:39:25.041Z,6.11
2022-11-30T17:41:56.792Z,6.16
2022-11-30T17:44:33.241Z,6.31
2022-11-30T17:47:11.440Z,6.40
2022-11-30T17:49:44.865Z,6.18
2022-11-30T17:52:17.066Z,6.21
2022-11-30T17:54:50.579Z,6.16
2022-11-30T17:57:30.576Z,6.16
2022-11-30T18:00:07.082Z,6.28
2022-11-30T18:02:44.654Z,6.12
2022-11-30T18:05:23.173Z,6.09
2022-11-30T18:07:54.608Z,6.34
2022-11-30T18:10:33.353Z,6.40
2022-11-30T18:13:05.796Z,6.25
2022-11-30T18:15:44.986Z,6.26
2022-11-30T18:18:30.699Z,6.25
2022-11-30T18:21:10.167Z,6.25
2022-11-30T18:23:49.168Z,6.02
2022-11-30T18:26:32.502Z,6.27
2022-11-30T18:29:19.994Z,6.14
2022-11-30T18:31:52.607Z,6.27
2022-11-30T18:34:41.794Z,6.14
2022-11-30T18:37:46.340Z,6.22
2022-11-30T18:40:20.141Z,6.13
2022-11-30T18:43:30.555Z,6.17
2022-11-30T18:46:06.689Z,6.41
2022-11-30T18:48:37.922Z,6.22
2022-11-30T18:51:23.152Z,6.27
2022-11-30T18:54:02.931Z,6.28
2022-11-30T18:56:43.928Z,6.20
2022-11-30T18:59:23.931Z,6.45
2022-11-30T19:02:20.676Z,6.19
2022-11-30T19:05:03.491Z,6.28
2022-11-30T19:07:50.913Z,6.10
2022-11-30T19:10:30.534Z,6.10
2022-11-30T19:13:11.331Z,6.07
2022-11-30T19:15:43.758Z,6.11
2022-11-30T19:18:26.304Z,6.07
2022-11-30T19:21:13.345Z,6.06
2022-11-30T19:24:01.587Z,5.99
2022-11-30T19:26:33.231Z,6.05
2022-11-30T19:29:03.947Z,6.10
2022-11-30T19:31:36.788Z,6.30
2022-11-30T19:34:13.302Z,6.10
2022-11-30T19:36:43.538Z,6.03
2022-11-30T19:39:15.470Z,6.10
2022-11-30T19:41:45.763Z,5.98
2022-11-30T19:44:18.623Z,6.18
2022-11-30T19:46:49.634Z,6.12
2022-11-30T19:49:19.067Z,6.13
2022-11-30T19:51:52.090Z,6.08
2022-11-30T19:54:24.019Z,5.96
2022-11-30T19:57:00.159Z,5.99
2022-11-30T19:59:30.807Z,6.06
2022-11-30T20:01:59.773Z,5.94
2022-11-30T20:04:29.684Z,5.82
2022-11-30T20:07:02.164Z,5.98
2022-11-30T20:09:33.600Z,5.93
2022-11-30T20:12:05.910Z,5.92
2022-11-30T20:14:37.512Z,6.18
2022-11-30T20:17:15.585Z,6.00
2022-11-30T20:19:46.781Z,5.95
2022-11-30T20:22:17.211Z,5.90
2022-11-30T20:24:51.386Z,5.66
2022-11-30T20:27:24.268Z,5.71
2022-11-30T20:29:55.099Z,5.59
2022-11-30T20:32:29.107Z,5.64
2022-11-30T20:34:59.712Z,5.71
2022-11-30T20:37:29.829Z,5.59
2022-11-30T20:40:03.501Z,5.65
2022-11-30T20:42:34.213Z,5.59
2022-11-30T20:45:04.653Z,5.69
2022-11-30T20:47:35.244Z,5.66
2022-11-30T20:50:07.517Z,5.59
2022-11-30T20:52:38.506Z,5.58
2022-11-30T20:55:10.553Z,5.47
2022-11-30T20:57:40.858Z,5.71
2022-11-30T21:00:13.256Z,5.54
2022-11-30T21:02:43.325Z,5.92
2022-11-30T21:05:15.546Z,5.86
2022-11-30T21:07:45.418Z,5.41
2022-11-30T21:10:16.647Z,5.56
2022-11-30T21:12:45.738Z,5.94
2022-11-30T21:15:15.120Z,5.74
2022-11-30T21:17:43.682Z,5.49
2022-11-30T21:20:13.217Z,5.51
2022-11-30T21:22:41.574Z,5.68
2022-11-30T21:25:10.589Z,5.77
2022-11-30T21:27:40.871Z,5.52
2022-11-30T21:30:10.212Z,5.71
2022-11-30T21:32:38.727Z,5.75
2022-11-30T21:35:07.868Z,5.54
2022-11-30T21:37:36.096Z,5.43
2022-11-30T21:40:04.347Z,5.50
2022-11-30T21:42:32.834Z,5.57
2022-11-30T21:45:02.308Z,5.44
2022-11-30T21:47:31.796Z,5.43
2022-11-30T21:50:00.748Z,5.62
2022-11-30T21:52:29.098Z,5.46
2022-11-30T21:54:57.187Z,5.40
2022-11-30T21:57:25.235Z,5.53
2022-11-30T21:59:53.502Z,5.41
2022-11-30T22:02:23.089Z,5.34
2022-11-30T22:04:51.170Z,5.22
2022-11-30T22:07:31.757Z,5.42
2022-11-30T22:10:00.045Z,5.30
2022-11-30T22:12:28.189Z,5.31
2022-11-30T22:14:56.364Z,5.44
2022-11-30T22:17:25.821Z,5.44
2022-11-30T22:19:54.008Z,5.13
2022-11-30T22:22:22.233Z,5.41
2022-11-30T22:24:50.603Z,5.36
2022-11-30T22:27:18.715Z,5.24
2022-11-30T22:29:48.235Z,5.04
2022-11-30T22:32:16.648Z,5.05
2022-11-30T22:34:46.339Z,4.88
2022-11-30T22:37:14.519Z,5.11
2022-11-30T22:39:42.521Z,5.20
2022-11-30T22:42:10.938Z,5.12
2022-11-30T22:44:38.997Z,5.18
2022-11-30T22:47:07.119Z,5.10
2022-11-30T22:49:35.605Z,5.37
2022-11-30T22:52:05.306Z,5.29
2022-11-30T22:54:33.776Z,5.05
2022-11-30T22:57:01.876Z,5.21
2022-11-30T22:59:30.065Z,5.17
2022-11-30T23:01:58.168Z,5.10
2022-11-30T23:04:26.206Z,5.15
2022-11-30T23:06:54.619Z,5.07
2022-11-30T23:09:24.840Z,4.99
2022-11-30T23:11:53.163Z,4.99
2022-11-30T23:14:21.459Z,4.92
2022-11-30T23:16:49.630Z,5.10
2022-11-30T23:19:18.290Z,5.13
2022-11-30T23:21:46.515Z,5.24
2022-11-30T23:24:16.988Z,4.98
2022-11-30T23:26:46.485Z,5.02
2022-11-30T23:29:16.031Z,5.09
2022-11-30T23:31:45.232Z,5.02
2022-11-30T23:34:14.938Z,4.95
2022-11-30T23:36:43.120Z,4.84
2022-11-30T23:39:13.175Z,4.79
2022-11-30T23:41:41.649Z,4.85
2022-11-30T23:44:11.475Z,4.70
2022-11-30T23:46:39.920Z,4.76
2022-11-30T23:49:08.312Z,4.78
2022-11-30T23:51:36.656Z,4.86
2022-11-30T23:54:05.228Z,4.75
2022-11-30T23:56:33.410Z,4.51
2022-11-30T23:59:01.552Z,4.57
